Photometre #46[NE_1.6] Toulon AOT

File : 20221126_46.hum

26/11/2022,07:41:03,TEMP=7.1,BA=5.48,STAT.A=4.5,ExtBa=12.47
26/11/2022,07:45:34,TEMP=7.5,BA=5.48,STAT.A=4.5,ExtBa=10.78
26/11/2022,07:50:54,TEMP=8.5,BA=5.60,STAT.A=4.5,ExtBa=11.33
26/11/2022,07:57:20,TEMP=9.1,BA=5.60,STAT.A=4.5,ExtBa=10.59
26/11/2022,08:05:13,TEMP=9.2,BA=5.48,STAT.A=4.5,ExtBa=10.65
26/11/2022,08:15:15,TEMP=9.2,BA=5.48,STAT.A=4.5,ExtBa=10.69
26/11/2022,08:23:34,TEMP=9.2,BA=5.48,STAT.F,ExtBa=10.67
26/11/2022,08:38:31,TEMP=9.6,BA=5.48,STAT.D=4.5,ExtBa=10.74
26/11/2022,08:53:32,TEMP=10.3,BA=5.52,STAT.D=4.5,ExtBa=10.73
26/11/2022,09:08:32,TEMP=11.1,BA=5.52,STAT.D=4.5,ExtBa=10.76
26/11/2022,09:23:34,TEMP=11.9,BA=5.56,STAT.F,ExtBa=10.75
26/11/2022,09:38:33,TEMP=14.0,BA=5.60,STAT.D=4.5,ExtBa=15.03
26/11/2022,09:53:34,TEMP=16.6,BA=5.64,STAT.D=4.5,ExtBa=13.95
26/11/2022,10:08:32,TEMP=18.3,BA=5.64,STAT.D=4.5,ExtBa=13.66
26/11/2022,10:23:34,TEMP=19.2,BA=5.64,STAT.F,ExtBa=13.44
26/11/2022,10:38:33,TEMP=19.5,BA=5.40,STAT.D=4.5,ExtBa=10.72
26/11/2022,10:53:32,TEMP=20.6,BA=5.60,STAT.D=4.5,ExtBa=10.89
26/11/2022,11:08:32,TEMP=21.5,BA=5.64,STAT.D=4.5,ExtBa=13.89
26/11/2022,11:23:34,TEMP=22.1,BA=5.64,STAT.F,ExtBa=13.93
26/11/2022,11:38:32,TEMP=22.2,BA=5.88,STAT.D=4.5,ExtBa=15.09
26/11/2022,11:53:32,TEMP=22.4,BA=5.64,STAT.D=4.5,ExtBa=13.99
26/11/2022,12:08:32,TEMP=22.9,BA=5.64,STAT.D=4.5,ExtBa=14.08
26/11/2022,12:23:34,TEMP=23.3,BA=5.64,STAT.F,ExtBa=14.16
26/11/2022,12:38:32,TEMP=23.0,BA=5.64,STAT.D=4.5,ExtBa=15.12
26/11/2022,12:53:32,TEMP=23.3,BA=5.64,STAT.D=4.5,ExtBa=14.17
26/11/2022,13:08:32,TEMP=23.2,BA=5.64,STAT.D=4.5,ExtBa=14.30
26/11/2022,13:23:34,TEMP=23.1,BA=5.64,STAT.F,ExtBa=14.32
26/11/2022,13:38:32,TEMP=22.6,BA=5.60,STAT.D=4.5,ExtBa=15.13
26/11/2022,13:53:32,TEMP=22.1,BA=5.64,STAT.D=4.5,ExtBa=14.20
26/11/2022,14:08:32,TEMP=22.0,BA=5.64,STAT.D=4.5,ExtBa=14.30
26/11/2022,14:23:33,TEMP=22.0,BA=5.60,STAT.F,ExtBa=14.21
26/11/2022,14:38:15,TEMP=20.9,BA=5.52,STAT.A=4.5,ExtBa=11.19
26/11/2022,14:41:52,TEMP=20.4,BA=5.52,STAT.A=4.5,ExtBa=11.91
26/11/2022,14:49:46,TEMP=19.6,BA=5.52,STAT.A=4.5,ExtBa=12.09
26/11/2022,14:56:12,TEMP=19.0,BA=5.44,STAT.A=4.5,ExtBa=11.16
26/11/2022,15:01:32,TEMP=18.5,BA=5.56,STAT.A=4.5,ExtBa=11.29
26/11/2022,15:06:03,TEMP=18.1,BA=5.56,STAT.A=4.5,ExtBa=11.19